createdAt,value
2022-09-03T00:00:18.868Z,96893.38
2022-09-03T00:02:50.434Z,96892.56
2022-09-03T00:05:23.733Z,96883.28
2022-09-03T00:07:57.908Z,96889.69
2022-09-03T00:10:31.427Z,96889.09
2022-09-03T00:13:04.153Z,96891.94
2022-09-03T00:15:33.889Z,96888.03
2022-09-03T00:18:06.589Z,96877.81
2022-09-03T00:20:41.869Z,96881.72
2022-09-03T00:23:14.237Z,96889.78
2022-09-03T00:25:45.874Z,96885.41
2022-09-03T00:28:19.430Z,96880.41
2022-09-03T00:30:51.757Z,96882.28
2022-09-03T00:33:22.161Z,96880.31
2022-09-03T00:35:57.846Z,96862.38
2022-09-03T00:38:24.822Z,96858.31
2022-09-03T00:41:04.491Z,96856.63
2022-09-03T00:43:47.676Z,96865.31
2022-09-03T00:46:23.734Z,96855.94
2022-09-03T00:49:22.988Z,96866.63
2022-09-03T00:52:02.233Z,96861.16
2022-09-03T00:54:40.211Z,96858.06
2022-09-03T00:57:29.813Z,96864.34
2022-09-03T01:00:03.603Z,96864.34
2022-09-03T01:02:43.014Z,96867.19
2022-09-03T01:05:19.595Z,96863.00
2022-09-03T01:07:55.065Z,96859.00
2022-09-03T01:10:30.863Z,96870.59
2022-09-03T01:13:08.314Z,96864.06
2022-09-03T01:15:45.473Z,96856.56
2022-09-03T01:18:23.172Z,96858.47
2022-09-03T01:21:16.662Z,96851.78
2022-09-03T01:24:11.977Z,96856.41
2022-09-03T01:26:55.831Z,96856.88
2022-09-03T01:29:34.836Z,96854.16
2022-09-03T01:32:11.368Z,96857.59
2022-09-03T01:34:54.233Z,96858.91
2022-09-03T01:37:36.575Z,96858.91
2022-09-03T01:40:12.778Z,96865.19
2022-09-03T01:42:52.696Z,96857.59
2022-09-03T01:45:46.762Z,96860.41
2022-09-03T01:48:35.168Z,96864.22
2022-09-03T01:51:11.230Z,96873.81
2022-09-03T01:53:56.662Z,96883.66
2022-09-03T01:56:32.177Z,96872.63
2022-09-03T01:59:05.620Z,96873.66
2022-09-03T02:01:40.411Z,96881.69
2022-09-03T02:04:17.112Z,96873.38
2022-09-03T02:06:45.312Z,96870.28
2022-09-03T02:09:12.636Z,96866.31
2022-09-03T02:11:40.640Z,96869.75
2022-09-03T02:14:08.165Z,96877.78
2022-09-03T02:16:38.156Z,96886.25
2022-09-03T02:19:10.885Z,96890.22
2022-09-03T02:21:40.954Z,96895.56
2022-09-03T02:24:09.141Z,96899.22
2022-09-03T02:26:36.645Z,96884.63
2022-09-03T02:29:04.489Z,96889.97
2022-09-03T02:31:34.026Z,96892.69
2022-09-03T02:34:03.043Z,96895.41
2022-09-03T02:36:34.379Z,96900.72
2022-09-03T02:39:01.979Z,96897.16
2022-09-03T02:41:29.073Z,96885.41
2022-09-03T02:44:02.708Z,96886.34
2022-09-03T02:46:39.265Z,96885.63
2022-09-03T02:49:08.970Z,96896.16
2022-09-03T02:51:38.984Z,96893.03
2022-09-03T02:54:06.570Z,96897.31
2022-09-03T02:56:34.086Z,96901.06
2022-09-03T02:59:02.197Z,96902.13
2022-09-03T03:01:29.508Z,96895.44
2022-09-03T03:03:59.872Z,96902.44
2022-09-03T03:06:29.250Z,96892.13
2022-09-03T03:08:56.805Z,96897.44
2022-09-03T03:11:24.333Z,96912.28
2022-09-03T03:13:52.210Z,96913.91
2022-09-03T03:16:19.778Z,96919.44
2022-09-03T03:18:47.809Z,96913.63
2022-09-03T03:21:17.598Z,96906.84
2022-09-03T03:23:46.358Z,96910.63
2022-09-03T03:26:16.250Z,96904.66
2022-09-03T03:28:44.147Z,96908.00
2022-09-03T03:31:13.782Z,96902.91
2022-09-03T03:33:41.745Z,96905.31
2022-09-03T03:36:11.717Z,96907.16
2022-09-03T03:38:40.811Z,96907.16
2022-09-03T03:41:13.153Z,96906.66
2022-09-03T03:43:40.638Z,96904.16
2022-09-03T03:46:08.453Z,96909.16
2022-09-03T03:48:36.668Z,96896.84
2022-09-03T03:51:06.675Z,96904.44
2022-09-03T03:53:35.467Z,96907.16
2022-09-03T03:56:06.106Z,96912.47
2022-09-03T03:58:35.172Z,96908.31
2022-09-03T04:01:06.698Z,96910.94
2022-09-03T04:03:34.498Z,96914.47
2022-09-03T04:06:02.756Z,96910.41
2022-09-03T04:08:30.547Z,96914.28
2022-09-03T04:11:01.193Z,96913.03
2022-09-03T04:13:29.791Z,96903.63
2022-09-03T04:16:04.092Z,96898.53
2022-09-03T04:18:33.147Z,96901.03
2022-09-03T04:21:01.743Z,96898.09
2022-09-03T04:23:28.797Z,96890.50
2022-09-03T04:25:55.818Z,96897.38
2022-09-03T04:28:25.108Z,96883.44
2022-09-03T04:30:53.676Z,96884.25
2022-09-03T04:33:25.778Z,96888.75
2022-09-03T04:35:53.798Z,96885.41
2022-09-03T04:38:21.161Z,96887.28
2022-09-03T04:40:52.619Z,96888.97
2022-09-03T04:43:20.469Z,96885.50
2022-09-03T04:45:48.042Z,96897.69
2022-09-03T04:48:15.824Z,96890.00
2022-09-03T04:50:44.962Z,96899.59
2022-09-03T04:53:12.790Z,96897.69
2022-09-03T04:55:41.585Z,96902.09
2022-09-03T04:58:09.043Z,96896.78
2022-09-03T05:00:36.957Z,96890.59
2022-09-03T05:03:04.436Z,96902.59
2022-09-03T05:05:31.716Z,96902.28
2022-09-03T05:08:01.371Z,96907.28
2022-09-03T05:10:29.111Z,96900.81
2022-09-03T05:13:00.903Z,96893.84
2022-09-03T05:15:28.471Z,96907.78
2022-09-03T05:17:58.929Z,96902.16
2022-09-03T05:20:27.034Z,96899.22
2022-09-03T05:22:54.602Z,96911.03
2022-09-03T05:25:24.158Z,96911.63
2022-09-03T05:27:51.391Z,96910.47
2022-09-03T05:30:18.844Z,96918.69
2022-09-03T05:32:46.233Z,96914.50
2022-09-03T05:35:13.778Z,96910.50
2022-09-03T05:37:41.923Z,96900.63
2022-09-03T05:40:11.013Z,96910.81
2022-09-03T05:42:41.928Z,96898.50
2022-09-03T05:45:10.716Z,96903.72
2022-09-03T05:47:39.661Z,96904.53
2022-09-03T05:50:10.111Z,96906.94
2022-09-03T05:52:37.493Z,96905.06
2022-09-03T05:55:05.745Z,96902.66
2022-09-03T05:57:33.417Z,96900.44
2022-09-03T06:00:03.332Z,96902.63
2022-09-03T06:02:31.030Z,96906.69
2022-09-03T06:04:58.714Z,96913.84
2022-09-03T06:07:26.255Z,96913.44
2022-09-03T06:09:53.267Z,96906.09
2022-09-03T06:12:20.668Z,96910.88
2022-09-03T06:14:48.184Z,96919.91
2022-09-03T06:17:17.314Z,96915.06
2022-09-03T06:19:44.490Z,96913.78
2022-09-03T06:22:12.232Z,96916.03
2022-09-03T06:24:39.913Z,96914.88
2022-09-03T06:27:07.360Z,96910.75
2022-09-03T06:29:35.243Z,96910.19
2022-09-03T06:32:02.727Z,96910.56
2022-09-03T06:34:32.418Z,96909.16
2022-09-03T06:36:59.488Z,96906.66
2022-09-03T06:39:26.911Z,96905.13
2022-09-03T06:41:54.400Z,96903.00
2022-09-03T06:44:22.377Z,96899.91
2022-09-03T06:46:49.770Z,96902.78
2022-09-03T06:49:16.938Z,96905.63
2022-09-03T06:51:46.068Z,96911.22
2022-09-03T06:54:13.469Z,96905.63
2022-09-03T06:56:41.927Z,96908.25
2022-09-03T06:59:11.523Z,96902.44
2022-09-03T07:01:39.481Z,96904.44
2022-09-03T07:04:07.877Z,96896.81
2022-09-03T07:06:37.343Z,96891.91
2022-09-03T07:09:07.047Z,96895.84
2022-09-03T07:11:34.884Z,96905.13
2022-09-03T07:14:03.776Z,96897.13
2022-09-03T07:16:34.968Z,96903.41
2022-09-03T07:19:03.056Z,96901.03
2022-09-03T07:21:32.347Z,96903.13
2022-09-03T07:23:59.520Z,96909.28
2022-09-03T07:26:30.502Z,96905.47
2022-09-03T07:28:58.505Z,96898.66
2022-09-03T07:31:28.579Z,96901.34
2022-09-03T07:33:56.119Z,96889.75
2022-09-03T07:36:25.138Z,96889.25
2022-09-03T07:38:56.236Z,96888.59
2022-09-03T07:41:28.553Z,96883.72
2022-09-03T07:43:58.244Z,96897.84
2022-09-03T07:46:26.817Z,96902.56
2022-09-03T07:48:55.679Z,96902.31
2022-09-03T07:51:25.266Z,96891.44
2022-09-03T07:53:55.055Z,96897.00
2022-09-03T07:56:22.542Z,96897.31
2022-09-03T07:58:50.093Z,96898.03
2022-09-03T08:01:20.679Z,96902.91
2022-09-03T08:03:49.965Z,96895.34
2022-09-03T08:06:19.644Z,96900.75
2022-09-03T08:08:46.864Z,96901.78
2022-09-03T08:11:16.324Z,96911.59
2022-09-03T08:13:45.072Z,96910.09
2022-09-03T08:16:13.314Z,96895.63
2022-09-03T08:18:42.423Z,96898.38
2022-09-03T08:21:11.707Z,96900.06
2022-09-03T08:23:40.093Z,96908.56
2022-09-03T08:26:07.659Z,96912.28
2022-09-03T08:28:35.376Z,96897.94
2022-09-03T08:31:07.047Z,96894.03
2022-09-03T08:33:34.853Z,96901.09
2022-09-03T08:36:04.596Z,96906.66
2022-09-03T08:38:32.579Z,96898.09
2022-09-03T08:41:12.033Z,96892.84
2022-09-03T08:44:08.764Z,96900.56
2022-09-03T08:46:48.283Z,96895.47
2022-09-03T08:49:21.254Z,96886.72
2022-09-03T08:51:53.161Z,96885.31
2022-09-03T08:54:24.481Z,96894.88
2022-09-03T08:56:51.440Z,96897.09
2022-09-03T08:59:18.903Z,96887.22
2022-09-03T09:01:56.122Z,96886.25
2022-09-03T09:04:38.869Z,96885.41
2022-09-03T09:07:13.439Z,96887.59
2022-09-03T09:09:47.360Z,96886.06
2022-09-03T09:12:28.641Z,96889.78
2022-09-03T09:15:07.363Z,96889.63
2022-09-03T09:17:54.608Z,96892.78
2022-09-03T09:20:29.896Z,96894.19
2022-09-03T09:23:03.574Z,96906.72
2022-09-03T09:25:32.004Z,96899.53
2022-09-03T09:28:02.602Z,96892.97
2022-09-03T09:30:31.857Z,96891.13
2022-09-03T09:32:59.911Z,96883.47
2022-09-03T09:35:27.846Z,96892.31
2022-09-03T09:37:56.925Z,96889.75
2022-09-03T09:40:29.278Z,96883.75
2022-09-03T09:43:05.082Z,96887.75
2022-09-03T09:45:32.620Z,96891.06
2022-09-03T09:48:01.832Z,96875.84
2022-09-03T09:50:28.872Z,96890.75
2022-09-03T09:53:03.306Z,96892.38
2022-09-03T09:55:32.103Z,96886.16
2022-09-03T09:58:07.438Z,96892.44
2022-09-03T10:00:37.303Z,96889.59
2022-09-03T10:03:11.518Z,96893.28
2022-09-03T10:05:39.841Z,96893.22
2022-09-03T10:08:20.319Z,96898.50
2022-09-03T10:10:50.719Z,96890.72
2022-09-03T10:13:21.758Z,96891.31
2022-09-03T10:15:54.848Z,96892.97
2022-09-03T10:18:30.700Z,96882.78
2022-09-03T10:21:05.084Z,96886.56
2022-09-03T10:23:40.650Z,96888.75
2022-09-03T10:26:13.920Z,96895.34
2022-09-03T10:28:42.973Z,96889.84
2022-09-03T10:31:32.104Z,96898.47
2022-09-03T10:34:06.864Z,96907.47
2022-09-03T10:36:43.037Z,96898.94
2022-09-03T10:39:15.656Z,96897.31
2022-09-03T10:41:58.221Z,96890.44
2022-09-03T10:44:55.208Z,96890.78
2022-09-03T10:47:37.756Z,96890.16
2022-09-03T10:50:14.580Z,96885.91
2022-09-03T10:53:03.550Z,96882.28
2022-09-03T10:55:40.436Z,96880.00
2022-09-03T10:58:25.285Z,96875.03
2022-09-03T11:00:59.482Z,96879.38
2022-09-03T11:03:44.162Z,96877.44
2022-09-03T11:06:15.906Z,96882.88
2022-09-03T11:08:49.097Z,96869.81
2022-09-03T11:11:19.604Z,96874.63
2022-09-03T11:13:52.205Z,96869.69
2022-09-03T11:16:23.506Z,96874.00
2022-09-03T11:18:56.325Z,96874.03
2022-09-03T11:21:28.533Z,96865.16
2022-09-03T11:24:05.933Z,96871.13
2022-09-03T11:26:34.257Z,96860.88
2022-09-03T11:29:10.258Z,96866.38
2022-09-03T11:31:50.864Z,96859.75
2022-09-03T11:34:31.887Z,96851.16
2022-09-03T11:37:20.210Z,96848.34
2022-09-03T11:39:56.577Z,96857.78
2022-09-03T11:42:31.530Z,96859.59
2022-09-03T11:45:22.083Z,96847.69
2022-09-03T11:47:50.863Z,96853.59
2022-09-03T11:50:22.111Z,96855.59
2022-09-03T11:52:51.028Z,96858.09
2022-09-03T11:55:33.667Z,96854.91
2022-09-03T11:58:13.589Z,96855.06
2022-09-03T12:00:43.591Z,96853.41
2022-09-03T12:03:16.055Z,96856.38
2022-09-03T12:05:52.774Z,96861.44
2022-09-03T12:08:45.531Z,96853.69
2022-09-03T12:11:29.871Z,96851.38
2022-09-03T12:14:09.374Z,96850.00
2022-09-03T12:17:17.815Z,96848.16
2022-09-03T12:19:52.147Z,96861.38
2022-09-03T12:22:21.335Z,96862.69
2022-09-03T12:24:49.136Z,96856.09
2022-09-03T12:27:20.851Z,96851.53
2022-09-03T12:29:54.381Z,96842.25
2022-09-03T12:32:24.358Z,96843.56
2022-09-03T12:34:51.723Z,96832.63
2022-09-03T12:38:04.474Z,96845.81
2022-09-03T12:40:18.958Z,96833.03
2022-09-03T12:42:46.287Z,96822.53
2022-09-03T12:45:14.747Z,96819.50
2022-09-03T12:47:44.666Z,96822.72
2022-09-03T12:50:16.642Z,96818.91
2022-09-03T12:52:47.532Z,96808.75
2022-09-03T12:55:27.693Z,96803.59
2022-09-03T12:58:02.515Z,96805.22
2022-09-03T13:00:33.127Z,96805.69
2022-09-03T13:03:06.961Z,96801.22
2022-09-03T13:05:37.284Z,96795.56
2022-09-03T13:08:10.761Z,96790.53
2022-09-03T13:10:40.540Z,96788.84
2022-09-03T13:13:22.171Z,96790.31
2022-09-03T13:16:27.514Z,96792.97
2022-09-03T13:19:02.272Z,96791.22
2022-09-03T13:21:41.962Z,96790.84
2022-09-03T13:24:25.150Z,96784.47
2022-09-03T13:27:06.556Z,96791.41
2022-09-03T13:29:59.453Z,96793.50
2022-09-03T13:32:34.920Z,96791.59
2022-09-03T13:35:11.175Z,96792.88
2022-09-03T13:37:43.548Z,96785.09
2022-09-03T13:40:17.329Z,96783.91
2022-09-03T13:42:53.395Z,96777.78
2022-09-03T13:45:29.847Z,96779.41
2022-09-03T13:48:02.670Z,96773.56
2022-09-03T13:50:39.792Z,96772.47
2022-09-03T13:53:13.761Z,96772.38
2022-09-03T13:55:46.420Z,96772.00
2022-09-03T13:58:25.093Z,96778.63
2022-09-03T14:01:11.850Z,96782.16
2022-09-03T14:03:48.713Z,96772.38
2022-09-03T14:06:30.391Z,96770.25
2022-09-03T14:09:10.183Z,96769.44
2022-09-03T14:11:49.020Z,96761.13
2022-09-03T14:14:29.894Z,96768.34
2022-09-03T14:17:02.452Z,96770.56
2022-09-03T14:19:40.326Z,96765.25
2022-09-03T14:22:16.049Z,96763.06
2022-09-03T14:24:50.209Z,96757.44
2022-09-03T14:27:25.436Z,96759.56
2022-09-03T14:29:59.195Z,96755.72
2022-09-03T14:32:34.774Z,96760.59
2022-09-03T14:35:24.289Z,96756.09
2022-09-03T14:38:21.555Z,96752.06
2022-09-03T14:41:04.412Z,96754.34
2022-09-03T14:44:04.399Z,96765.50
2022-09-03T14:46:41.136Z,96758.91
2022-09-03T14:49:22.090Z,96758.56
2022-09-03T14:52:02.711Z,96765.69
2022-09-03T14:54:59.356Z,96765.44
2022-09-03T14:57:54.084Z,96753.81
2022-09-03T15:00:23.161Z,96753.81
2022-09-03T15:03:30.360Z,96756.72
2022-09-03T15:06:11.988Z,96766.97
2022-09-03T15:08:55.085Z,96745.13
2022-09-03T15:11:26.911Z,96753.88
2022-09-03T15:14:03.401Z,96755.91
2022-09-03T15:16:44.086Z,96758.56
2022-09-03T15:19:19.808Z,96749.50
2022-09-03T15:22:02.735Z,96754.78
2022-09-03T15:24:41.114Z,96749.22
2022-09-03T15:27:40.002Z,96753.72
2022-09-03T15:30:10.227Z,96751.41
2022-09-03T15:32:49.125Z,96740.16
2022-09-03T15:35:32.646Z,96752.59
2022-09-03T15:38:03.071Z,96755.88
2022-09-03T15:40:33.440Z,96759.25
2022-09-03T15:43:07.692Z,96764.56
2022-09-03T15:45:39.420Z,96763.38
2022-09-03T15:48:17.759Z,96763.91
2022-09-03T15:51:06.112Z,96761.97
2022-09-03T15:53:38.070Z,96760.84
2022-09-03T15:56:16.575Z,96770.34
2022-09-03T15:58:53.612Z,96779.84
2022-09-03T16:01:28.053Z,96771.13
2022-09-03T16:04:05.693Z,96783.81
2022-09-03T16:06:44.740Z,96780.38
2022-09-03T16:09:25.585Z,96780.91
2022-09-03T16:11:59.520Z,96773.47
2022-09-03T16:14:35.059Z,96776.47
2022-09-03T16:17:13.792Z,96778.66
2022-09-03T16:19:48.185Z,96788.63
2022-09-03T16:22:26.720Z,96783.19
2022-09-03T16:25:00.331Z,96785.38
2022-09-03T16:27:32.385Z,96785.22
2022-09-03T16:30:09.756Z,96786.72
2022-09-03T16:32:54.252Z,96791.72
2022-09-03T16:35:34.232Z,96791.41
2022-09-03T16:38:20.352Z,96788.94
2022-09-03T16:40:55.567Z,96785.34
2022-09-03T16:43:42.788Z,96788.97
2022-09-03T16:46:23.193Z,96779.88
2022-09-03T16:49:03.395Z,96786.72
2022-09-03T16:51:38.387Z,96789.72
2022-09-03T16:54:25.794Z,96791.88
2022-09-03T16:57:08.655Z,96787.91
2022-09-03T17:00:07.847Z,96788.78
2022-09-03T17:03:05.450Z,96788.94
2022-09-03T17:06:15.834Z,96792.25
2022-09-03T17:08:50.726Z,96786.16
2022-09-03T17:11:39.039Z,96795.25
2022-09-03T17:14:22.640Z,96795.94
2022-09-03T17:16:57.833Z,96796.56
2022-09-03T17:19:27.396Z,96804.19
2022-09-03T17:22:09.431Z,96805.53
2022-09-03T17:24:41.740Z,96811.97
2022-09-03T17:27:26.546Z,96805.03
2022-09-03T17:30:07.529Z,96799.56
2022-09-03T17:33:06.086Z,96810.81
2022-09-03T17:35:42.030Z,96806.53
2022-09-03T17:38:29.069Z,96811.47
2022-09-03T17:41:08.539Z,96812.00
2022-09-03T17:43:45.094Z,96817.78
2022-09-03T17:46:27.939Z,96811.81
2022-09-03T17:48:59.030Z,96808.69
2022-09-03T17:51:40.655Z,96818.63
2022-09-03T17:54:17.015Z,96818.94
2022-09-03T17:56:52.017Z,96820.09
2022-09-03T17:59:36.788Z,96811.50
2022-09-03T18:02:08.710Z,96817.28
2022-09-03T18:04:46.915Z,96813.66
2022-09-03T18:07:22.736Z,96818.59
2022-09-03T18:10:02.173Z,96819.25
2022-09-03T18:12:38.893Z,96819.34
2022-09-03T18:15:13.759Z,96825.28
2022-09-03T18:17:49.074Z,96827.44
2022-09-03T18:20:15.975Z,96826.41
2022-09-03T18:22:50.353Z,96820.28
2022-09-03T18:25:22.751Z,96820.78
2022-09-03T18:27:56.916Z,96812.00
2022-09-03T18:30:25.063Z,96827.66
2022-09-03T18:32:53.417Z,96833.41
2022-09-03T18:35:21.771Z,96828.91
2022-09-03T18:37:49.396Z,96832.03
2022-09-03T18:40:25.097Z,96825.72
2022-09-03T18:43:04.895Z,96831.63
2022-09-03T18:46:22.351Z,96832.22
2022-09-03T18:48:37.883Z,96837.59
2022-09-03T18:51:14.880Z,96834.94
2022-09-03T18:53:50.685Z,96839.81
2022-09-03T18:56:32.973Z,96842.25
2022-09-03T18:59:19.703Z,96841.75
2022-09-03T19:01:48.581Z,96831.50
2022-09-03T19:04:25.215Z,96838.88
2022-09-03T19:07:03.375Z,96843.63
2022-09-03T19:09:42.728Z,96849.22
2022-09-03T19:12:25.860Z,96854.03
2022-09-03T19:14:59.816Z,96867.00
2022-09-03T19:17:36.610Z,96865.44
2022-09-03T19:20:10.409Z,96864.41
2022-09-03T19:22:40.292Z,96879.28
2022-09-03T19:25:12.813Z,96877.75
2022-09-03T19:27:59.906Z,96883.00
2022-09-03T19:30:34.353Z,96880.59
2022-09-03T19:33:17.222Z,96890.91
2022-09-03T19:35:53.153Z,96888.84
2022-09-03T19:38:34.547Z,96892.47
2022-09-03T19:41:14.501Z,96881.53
2022-09-03T19:43:59.930Z,96887.63
2022-09-03T19:46:35.446Z,96889.03
2022-09-03T19:49:16.631Z,96891.44
2022-09-03T19:51:52.795Z,96899.09
2022-09-03T19:54:28.203Z,96896.34
2022-09-03T19:56:59.257Z,96897.34
2022-09-03T19:59:34.470Z,96895.81
2022-09-03T20:02:01.829Z,96884.91
2022-09-03T20:04:32.625Z,96890.97
2022-09-03T20:07:03.983Z,96902.59
2022-09-03T20:09:35.609Z,96901.94
2022-09-03T20:12:10.060Z,96900.69
2022-09-03T20:14:39.752Z,96904.13
2022-09-03T20:17:18.029Z,96900.16
2022-09-03T20:19:58.280Z,96903.91
2022-09-03T20:22:31.362Z,96910.97
2022-09-03T20:25:17.133Z,96903.66
2022-09-03T20:27:53.413Z,96914.59
2022-09-03T20:30:32.870Z,96915.84
2022-09-03T20:33:27.120Z,96918.09
2022-09-03T20:36:07.705Z,96919.19
2022-09-03T20:39:20.904Z,96916.84
2022-09-03T20:41:55.727Z,96925.84
2022-09-03T20:44:43.567Z,96926.09
2022-09-03T20:47:30.150Z,96917.66
2022-09-03T20:50:03.755Z,96922.25
2022-09-03T20:52:41.758Z,96909.53
2022-09-03T20:55:16.445Z,96913.78
2022-09-03T20:57:54.097Z,96908.81
2022-09-03T21:00:22.218Z,96913.53
2022-09-03T21:03:12.822Z,96909.66
2022-09-03T21:05:48.331Z,96916.84
2022-09-03T21:08:21.276Z,96912.56
2022-09-03T21:10:54.336Z,96912.72
2022-09-03T21:13:31.989Z,96913.81
2022-09-03T21:16:20.400Z,96920.88
2022-09-03T21:18:59.174Z,96919.22
2022-09-03T21:21:39.718Z,96917.41
2022-09-03T21:24:15.029Z,96919.22
2022-09-03T21:26:46.115Z,96919.06
2022-09-03T21:29:22.267Z,96918.78
2022-09-03T21:31:55.060Z,96921.41
2022-09-03T21:34:30.581Z,96919.47
2022-09-03T21:36:57.638Z,96913.25
2022-09-03T21:39:28.848Z,96924.44
2022-09-03T21:42:01.895Z,96932.34
2022-09-03T21:44:46.819Z,96934.00
2022-09-03T21:47:16.023Z,96933.88
2022-09-03T21:49:57.873Z,96928.88
2022-09-03T21:52:34.223Z,96934.16
2022-09-03T21:55:03.283Z,96937.59
2022-09-03T21:57:34.846Z,96936.91
2022-09-03T22:00:14.784Z,96941.63
2022-09-03T22:02:42.382Z,96938.16
2022-09-03T22:05:11.179Z,96934.72
2022-09-03T22:07:53.809Z,96934.31
2022-09-03T22:10:26.854Z,96939.00
2022-09-03T22:13:05.486Z,96944.13
2022-09-03T22:15:33.381Z,96957.81
2022-09-03T22:18:06.660Z,96939.84
2022-09-03T22:20:37.269Z,96947.72
2022-09-03T22:23:12.511Z,96944.97
2022-09-03T22:25:48.323Z,96939.00
2022-09-03T22:28:24.579Z,96935.41
2022-09-03T22:31:02.034Z,96940.81
2022-09-03T22:33:36.344Z,96948.00
2022-09-03T22:36:14.236Z,96944.69
2022-09-03T22:38:54.563Z,96945.38
2022-09-03T22:41:42.671Z,96954.06
2022-09-03T22:44:22.872Z,96949.81
2022-09-03T22:47:00.313Z,96952.56
2022-09-03T22:49:38.160Z,96961.69
2022-09-03T22:52:22.581Z,96962.97
2022-09-03T22:55:07.449Z,96955.34
2022-09-03T22:57:43.245Z,96963.25
2022-09-03T23:00:12.343Z,96956.03
2022-09-03T23:02:41.904Z,96959.34
2022-09-03T23:05:17.645Z,96951.31
2022-09-03T23:07:53.084Z,96954.09
2022-09-03T23:10:26.363Z,96965.41
2022-09-03T23:13:04.825Z,96967.50
2022-09-03T23:15:36.177Z,96971.41
2022-09-03T23:18:08.479Z,96982.19
2022-09-03T23:20:40.173Z,96991.16
2022-09-03T23:23:19.527Z,96988.00
2022-09-03T23:25:51.848Z,96981.34
2022-09-03T23:28:24.559Z,96979.81
2022-09-03T23:30:52.378Z,96984.94
2022-09-03T23:33:19.318Z,96993.94
2022-09-03T23:35:54.729Z,96983.28
2022-09-03T23:38:27.394Z,96978.44
2022-09-03T23:40:58.701Z,96971.94
2022-09-03T23:44:01.888Z,96964.47
2022-09-03T23:46:39.205Z,96968.50
2022-09-03T23:49:23.345Z,96949.97
2022-09-03T23:52:05.218Z,96940.25
2022-09-03T23:54:39.202Z,96944.56
2022-09-03T23:57:14.910Z,96951.19
2022-09-03T23:59:58.224Z,96944.56
